sensor_id;sensor_type;location;lat;lon;timestamp;pressure;altitude;pressure_sealevel;temperature;humidity
3832;BME280;12460;42.662;23.288;2023-03-24T00:09:26;94629.47;;;8.96;59.30
3832;BME280;12460;42.662;23.288;2023-03-24T00:24:33;94640.13;;;8.90;59.66
3832;BME280;12460;42.662;23.288;2023-03-24T00:39:37;94641.19;;;8.79;60.35
3832;BME280;12460;42.662;23.288;2023-03-24T00:54:45;94628.09;;;8.67;60.39
3832;BME280;12460;42.662;23.288;2023-03-24T01:09:51;94635.91;;;8.61;60.81
3832;BME280;12460;42.662;23.288;2023-03-24T01:25:00;94605.06;;;8.46;61.16
3832;BME280;12460;42.662;23.288;2023-03-24T01:40:06;94612.72;;;8.45;61.48
3832;BME280;12460;42.662;23.288;2023-03-24T01:55:16;94622.94;;;8.35;61.95
3832;BME280;12460;42.662;23.288;2023-03-24T02:10:25;94621.00;;;8.22;62.29
3832;BME280;12460;42.662;23.288;2023-03-24T02:26:15;94629.34;;;8.07;62.13
3832;BME280;12460;42.662;23.288;2023-03-24T02:41:27;94620.00;;;8.05;62.48
3832;BME280;12460;42.662;23.288;2023-03-24T02:56:51;94588.41;;;7.97;63.07
3832;BME280;12460;42.662;23.288;2023-03-24T03:12:09;94591.50;;;7.78;63.51
3832;BME280;12460;42.662;23.288;2023-03-24T03:27:21;94588.75;;;7.86;63.32
3832;BME280;12460;42.662;23.288;2023-03-24T03:42:26;94590.13;;;8.07;63.52
3832;BME280;12460;42.662;23.288;2023-03-24T03:57:32;94596.50;;;8.08;63.62
3832;BME280;12460;42.662;23.288;2023-03-24T04:13:30;94604.66;;;7.98;63.73
3832;BME280;12460;42.662;23.288;2023-03-24T04:44:22;94618.03;;;8.20;63.07
3832;BME280;12460;42.662;23.288;2023-03-24T04:59:45;94631.13;;;12.08;54.44
3832;BME280;12460;42.662;23.288;2023-03-24T05:14:51;94630.34;;;15.57;46.93
3832;BME280;12460;42.662;23.288;2023-03-24T05:29:55;94642.31;;;18.03;40.38
3832;BME280;12460;42.662;23.288;2023-03-24T05:45:04;94637.06;;;19.45;38.15
3832;BME280;12460;42.662;23.288;2023-03-24T06:00:10;94635.22;;;20.02;36.81
3832;BME280;12460;42.662;23.288;2023-03-24T06:15:31;94638.56;;;20.80;35.31
3832;BME280;12460;42.662;23.288;2023-03-24T06:30:52;94646.78;;;21.15;34.52
3832;BME280;12460;42.662;23.288;2023-03-24T06:46:06;94644.22;;;21.50;33.44
3832;BME280;12460;42.662;23.288;2023-03-24T07:01:16;94649.88;;;19.96;35.45
3832;BME280;12460;42.662;23.288;2023-03-24T07:16:33;94668.97;;;20.73;34.30
3832;BME280;12460;42.662;23.288;2023-03-24T07:32:04;94670.13;;;20.82;34.11
3832;BME280;12460;42.662;23.288;2023-03-24T07:47:11;94648.19;;;21.58;32.96
3832;BME280;12460;42.662;23.288;2023-03-24T08:02:19;94648.88;;;22.51;32.20
3832;BME280;12460;42.662;23.288;2023-03-24T08:17:35;94628.19;;;23.54;30.07
3832;BME280;12460;42.662;23.288;2023-03-24T08:32:47;94620.63;;;23.63;29.74
3832;BME280;12460;42.662;23.288;2023-03-24T08:47:54;94603.78;;;23.20;30.33
3832;BME280;12460;42.662;23.288;2023-03-24T09:02:59;94582.75;;;24.23;29.03
3832;BME280;12460;42.662;23.288;2023-03-24T09:18:04;94563.44;;;24.86;27.98
3832;BME280;12460;42.662;23.288;2023-03-24T09:33:09;94545.41;;;25.75;26.97
3832;BME280;12460;42.662;23.288;2023-03-24T09:48:38;94526.06;;;26.52;25.09
3832;BME280;12460;42.662;23.288;2023-03-24T10:03:46;94505.31;;;28.10;23.62
3832;BME280;12460;42.662;23.288;2023-03-24T10:19:27;94493.63;;;27.39;24.29
3832;BME280;12460;42.662;23.288;2023-03-24T10:34:40;94483.97;;;27.28;23.53
3832;BME280;12460;42.662;23.288;2023-03-24T10:49:59;94466.31;;;28.11;22.45
3832;BME280;12460;42.662;23.288;2023-03-24T11:05:18;94468.31;;;27.71;22.12
3832;BME280;12460;42.662;23.288;2023-03-24T11:20:32;94443.16;;;26.27;23.06
3832;BME280;12460;42.662;23.288;2023-03-24T11:35:39;94410.78;;;27.85;21.68
3832;BME280;12460;42.662;23.288;2023-03-24T11:50:45;94401.88;;;26.20;22.21
3832;BME280;12460;42.662;23.288;2023-03-24T12:05:57;94375.53;;;25.53;22.95
3832;BME280;12460;42.662;23.288;2023-03-24T12:21:35;94354.06;;;24.63;24.24
3832;BME280;12460;42.662;23.288;2023-03-24T12:37:21;94329.66;;;25.12;23.79
3832;BME280;12460;42.662;23.288;2023-03-24T12:52:36;94310.25;;;25.38;24.00
3832;BME280;12460;42.662;23.288;2023-03-24T13:07:54;94301.28;;;26.07;22.80
3832;BME280;12460;42.662;23.288;2023-03-24T13:23:16;94267.97;;;25.44;22.59
3832;BME280;12460;42.662;23.288;2023-03-24T13:53:37;94252.09;;;23.56;22.90
3832;BME280;12460;42.662;23.288;2023-03-24T14:23:56;94220.22;;;22.48;23.44
3832;BME280;12460;42.662;23.288;2023-03-24T14:39:21;94222.16;;;22.23;23.45
3832;BME280;12460;42.662;23.288;2023-03-24T14:54:53;94206.81;;;21.80;23.54
3832;BME280;12460;42.662;23.288;2023-03-24T15:10:00;94199.38;;;21.73;23.94
3832;BME280;12460;42.662;23.288;2023-03-24T15:25:06;94203.19;;;21.44;24.10
3832;BME280;12460;42.662;23.288;2023-03-24T15:55:35;94196.44;;;21.02;25.73
3832;BME280;12460;42.662;23.288;2023-03-24T16:10:41;94206.13;;;20.62;27.98
3832;BME280;12460;42.662;23.288;2023-03-24T16:25:46;94203.00;;;20.25;29.38
3832;BME280;12460;42.662;23.288;2023-03-24T16:40:52;94215.66;;;19.32;32.25
3832;BME280;12460;42.662;23.288;2023-03-24T16:55:57;94200.69;;;18.89;32.44
3832;BME280;12460;42.662;23.288;2023-03-24T17:11:02;94201.13;;;18.42;33.72
3832;BME280;12460;42.662;23.288;2023-03-24T17:26:07;94212.69;;;18.05;34.67
3832;BME280;12460;42.662;23.288;2023-03-24T17:41:12;94215.66;;;17.43;35.82
3832;BME280;12460;42.662;23.288;2023-03-24T17:56:17;94221.59;;;17.11;36.50
3832;BME280;12460;42.662;23.288;2023-03-24T18:11:22;94215.53;;;16.68;38.28
3832;BME280;12460;42.662;23.288;2023-03-24T18:26:27;94223.59;;;16.37;38.97
3832;BME280;12460;42.662;23.288;2023-03-24T18:41:34;94237.53;;;15.98;39.94
3832;BME280;12460;42.662;23.288;2023-03-24T18:56:39;94243.19;;;15.86;39.56
3832;BME280;12460;42.662;23.288;2023-03-24T19:11:45;94248.91;;;15.54;40.78
3832;BME280;12460;42.662;23.288;2023-03-24T19:26:49;94257.31;;;15.30;42.71
3832;BME280;12460;42.662;23.288;2023-03-24T19:41:54;94257.16;;;14.96;43.46
3832;BME280;12460;42.662;23.288;2023-03-24T19:56:59;94272.78;;;14.76;43.54
3832;BME280;12460;42.662;23.288;2023-03-24T20:12:04;94267.31;;;14.47;44.05
3832;BME280;12460;42.662;23.288;2023-03-24T20:27:09;94269.06;;;14.21;45.35
3832;BME280;12460;42.662;23.288;2023-03-24T20:42:14;94266.94;;;13.91;46.21
3832;BME280;12460;42.662;23.288;2023-03-24T20:57:20;94265.28;;;13.57;46.44
3832;BME280;12460;42.662;23.288;2023-03-24T21:12:24;94264.56;;;13.38;47.74
3832;BME280;12460;42.662;23.288;2023-03-24T21:27:29;94290.72;;;13.19;48.37
3832;BME280;12460;42.662;23.288;2023-03-24T21:42:33;94296.34;;;13.00;49.62
3832;BME280;12460;42.662;23.288;2023-03-24T21:57:41;94280.00;;;12.89;49.69
3832;BME280;12460;42.662;23.288;2023-03-24T22:12:50;94277.63;;;12.76;50.11
3832;BME280;12460;42.662;23.288;2023-03-24T22:27:55;94269.59;;;12.53;50.37
3832;BME280;12460;42.662;23.288;2023-03-24T22:43:01;94291.09;;;12.39;51.72
3832;BME280;12460;42.662;23.288;2023-03-24T22:58:05;94302.88;;;12.18;51.87
3832;BME280;12460;42.662;23.288;2023-03-24T23:13:10;94282.09;;;12.14;52.07
3832;BME280;12460;42.662;23.288;2023-03-24T23:28:14;94270.16;;;11.96;53.09
3832;BME280;12460;42.662;23.288;2023-03-24T23:43:19;94274.13;;;11.83;53.39
3832;BME280;12460;42.662;23.288;2023-03-24T23:58:23;94253.81;;;11.58;53.75
